FVTE weather

Tengwe Airport
Tengwe, Mashonaland West Province, Zimbabwe

Public forecast

Using degrees Celsius for public forecast. Weather courtesy of forecast.io.

METAR (pilot weather report)

Report is more than 6 hours old.

Closest report is Kariba International Airport, 55.3 nm (102.4 km) NW. Retrieved 2019/05/14 15:00 UTC (5 days ago):

FVKB 141500Z 28003KT CAVOK 27/16 Q1015

TAF (pilot weather forecast)

Forecast is more than 12 hours old.

Closest forecast is Kariba International Airport, 55.3 nm (102.4 km) NW. Retrieved 2018/08/24 06:00 UTC (9 months ago):

TAF FVKB 240400Z 2406/2416 27005KT CAVOK